sensor_id;sensor_type;location;lat;lon;timestamp;temperature;humidity
5675;DHT22;2860;54.284;10.158;2023-02-02T00:01:52;5.10;99.90
5675;DHT22;2860;54.284;10.158;2023-02-02T00:04:26;5.10;99.90
5675;DHT22;2860;54.284;10.158;2023-02-02T00:06:52;5.10;99.90
5675;DHT22;2860;54.284;10.158;2023-02-02T00:09:19;5.10;99.90
5675;DHT22;2860;54.284;10.158;2023-02-02T00:11:46;5.10;99.90
5675;DHT22;2860;54.284;10.158;2023-02-02T00:14:12;5.10;99.90
5675;DHT22;2860;54.284;10.158;2023-02-02T00:16:45;5.10;99.90
5675;DHT22;2860;54.284;10.158;2023-02-02T00:19:19;5.10;99.90
5675;DHT22;2860;54.284;10.158;2023-02-02T00:21:46;5.10;99.90
5675;DHT22;2860;54.284;10.158;2023-02-02T00:24:13;5.10;99.90
5675;DHT22;2860;54.284;10.158;2023-02-02T00:26:40;5.10;99.90
5675;DHT22;2860;54.284;10.158;2023-02-02T00:29:07;5.20;99.90
5675;DHT22;2860;54.284;10.158;2023-02-02T00:31:35;5.20;99.90
5675;DHT22;2860;54.284;10.158;2023-02-02T00:34:01;5.20;99.90
5675;DHT22;2860;54.284;10.158;2023-02-02T00:36:26;5.20;99.90
5675;DHT22;2860;54.284;10.158;2023-02-02T00:38:52;5.20;99.90
5675;DHT22;2860;54.284;10.158;2023-02-02T00:41:18;5.10;99.90
5675;DHT22;2860;54.284;10.158;2023-02-02T00:43:44;5.10;99.90
5675;DHT22;2860;54.284;10.158;2023-02-02T00:46:17;5.10;99.90
5675;DHT22;2860;54.284;10.158;2023-02-02T00:48:42;5.00;99.90
5675;DHT22;2860;54.284;10.158;2023-02-02T00:51:08;4.90;99.90
5675;DHT22;2860;54.284;10.158;2023-02-02T00:53:34;4.90;99.90
5675;DHT22;2860;54.284;10.158;2023-02-02T00:55:59;4.80;99.90
5675;DHT22;2860;54.284;10.158;2023-02-02T00:58:25;4.70;99.90
5675;DHT22;2860;54.284;10.158;2023-02-02T01:00:51;4.70;99.90
5675;DHT22;2860;54.284;10.158;2023-02-02T01:03:16;4.60;99.90
5675;DHT22;2860;54.284;10.158;2023-02-02T01:05:42;4.60;99.90
5675;DHT22;2860;54.284;10.158;2023-02-02T01:08:07;4.60;99.90
5675;DHT22;2860;54.284;10.158;2023-02-02T01:10:33;4.60;99.90
5675;DHT22;2860;54.284;10.158;2023-02-02T01:12:59;4.60;99.90
5675;DHT22;2860;54.284;10.158;2023-02-02T01:15:24;4.60;99.90
5675;DHT22;2860;54.284;10.158;2023-02-02T01:17:50;4.50;99.90
5675;DHT22;2860;54.284;10.158;2023-02-02T01:20:18;4.50;99.90
5675;DHT22;2860;54.284;10.158;2023-02-02T01:22:50;4.50;99.90
5675;DHT22;2860;54.284;10.158;2023-02-02T01:25:16;4.40;99.90
5675;DHT22;2860;54.284;10.158;2023-02-02T01:27:41;4.40;99.90
5675;DHT22;2860;54.284;10.158;2023-02-02T01:30:07;4.30;99.90
5675;DHT22;2860;54.284;10.158;2023-02-02T01:32:33;4.30;99.90
5675;DHT22;2860;54.284;10.158;2023-02-02T01:34:58;4.40;99.90
5675;DHT22;2860;54.284;10.158;2023-02-02T01:37:24;4.40;99.90
5675;DHT22;2860;54.284;10.158;2023-02-02T01:39:49;4.30;99.90
5675;DHT22;2860;54.284;10.158;2023-02-02T01:42:20;4.30;99.90
5675;DHT22;2860;54.284;10.158;2023-02-02T01:45:08;4.20;99.90
5675;DHT22;2860;54.284;10.158;2023-02-02T01:47:45;4.10;99.90
5675;DHT22;2860;54.284;10.158;2023-02-02T01:50:14;4.00;99.90
5675;DHT22;2860;54.284;10.158;2023-02-02T01:52:42;4.00;99.90
5675;DHT22;2860;54.284;10.158;2023-02-02T01:55:12;4.00;99.90
5675;DHT22;2860;54.284;10.158;2023-02-02T01:57:51;4.00;99.90
5675;DHT22;2860;54.284;10.158;2023-02-02T02:00:18;4.10;99.90
5675;DHT22;2860;54.284;10.158;2023-02-02T02:02:51;4.10;99.90
5675;DHT22;2860;54.284;10.158;2023-02-02T02:05:25;4.10;99.90
5675;DHT22;2860;54.284;10.158;2023-02-02T02:07:53;4.00;99.90
5675;DHT22;2860;54.284;10.158;2023-02-02T02:10:20;4.00;99.90
5675;DHT22;2860;54.284;10.158;2023-02-02T02:12:48;4.00;99.90
5675;DHT22;2860;54.284;10.158;2023-02-02T02:15:14;4.00;99.90
5675;DHT22;2860;54.284;10.158;2023-02-02T02:24:10;3.90;99.90
5675;DHT22;2860;54.284;10.158;2023-02-02T02:30:45;3.80;99.90
5675;DHT22;2860;54.284;10.158;2023-02-02T02:33:05;3.80;99.90
5675;DHT22;2860;54.284;10.158;2023-02-02T02:35:40;3.80;99.90
5675;DHT22;2860;54.284;10.158;2023-02-02T02:38:16;3.80;99.90
5675;DHT22;2860;54.284;10.158;2023-02-02T02:40:49;3.70;99.90
5675;DHT22;2860;54.284;10.158;2023-02-02T02:43:20;3.70;99.90
5675;DHT22;2860;54.284;10.158;2023-02-02T02:45:47;3.60;99.90
5675;DHT22;2860;54.284;10.158;2023-02-02T02:48:13;3.60;99.90
5675;DHT22;2860;54.284;10.158;2023-02-02T02:50:39;3.50;99.90
5675;DHT22;2860;54.284;10.158;2023-02-02T02:53:08;3.50;99.90
5675;DHT22;2860;54.284;10.158;2023-02-02T02:59:01;3.50;99.90
5675;DHT22;2860;54.284;10.158;2023-02-02T03:01:42;3.50;99.90
5675;DHT22;2860;54.284;10.158;2023-02-02T03:04:14;3.50;99.90
5675;DHT22;2860;54.284;10.158;2023-02-02T03:06:52;3.60;99.90
5675;DHT22;2860;54.284;10.158;2023-02-02T03:09:22;3.60;99.90
5675;DHT22;2860;54.284;10.158;2023-02-02T03:11:49;3.70;99.90
5675;DHT22;2860;54.284;10.158;2023-02-02T03:14:15;3.60;99.90
5675;DHT22;2860;54.284;10.158;2023-02-02T03:16:40;3.60;99.90
5675;DHT22;2860;54.284;10.158;2023-02-02T03:19:06;3.70;99.90
5675;DHT22;2860;54.284;10.158;2023-02-02T03:21:32;3.70;99.90
5675;DHT22;2860;54.284;10.158;2023-02-02T03:23:58;3.70;99.90
5675;DHT22;2860;54.284;10.158;2023-02-02T03:26:24;3.80;99.90
5675;DHT22;2860;54.284;10.158;2023-02-02T03:28:52;3.80;99.90
5675;DHT22;2860;54.284;10.158;2023-02-02T03:31:19;3.80;99.90
5675;DHT22;2860;54.284;10.158;2023-02-02T03:33:45;3.80;99.90
5675;DHT22;2860;54.284;10.158;2023-02-02T03:36:10;3.90;99.90
5675;DHT22;2860;54.284;10.158;2023-02-02T03:38:36;3.90;99.90
5675;DHT22;2860;54.284;10.158;2023-02-02T03:41:01;3.90;99.90
5675;DHT22;2860;54.284;10.158;2023-02-02T03:43:27;3.90;99.90
5675;DHT22;2860;54.284;10.158;2023-02-02T03:46:03;3.90;99.90
5675;DHT22;2860;54.284;10.158;2023-02-02T03:48:29;3.90;99.90
5675;DHT22;2860;54.284;10.158;2023-02-02T03:50:55;3.90;99.90
5675;DHT22;2860;54.284;10.158;2023-02-02T03:53:21;3.80;99.90
5675;DHT22;2860;54.284;10.158;2023-02-02T03:55:47;3.70;99.90
5675;DHT22;2860;54.284;10.158;2023-02-02T03:58:12;3.70;99.90
5675;DHT22;2860;54.284;10.158;2023-02-02T04:00:38;3.70;99.90
5675;DHT22;2860;54.284;10.158;2023-02-02T04:03:04;3.70;99.90
5675;DHT22;2860;54.284;10.158;2023-02-02T04:05:30;3.70;99.90
5675;DHT22;2860;54.284;10.158;2023-02-02T04:07:55;3.80;99.90
5675;DHT22;2860;54.284;10.158;2023-02-02T04:10:21;3.80;99.90
5675;DHT22;2860;54.284;10.158;2023-02-02T04:12:46;3.80;99.90
5675;DHT22;2860;54.284;10.158;2023-02-02T04:15:12;3.90;99.90
5675;DHT22;2860;54.284;10.158;2023-02-02T04:17:37;3.90;99.90
5675;DHT22;2860;54.284;10.158;2023-02-02T04:20:05;3.90;99.90
5675;DHT22;2860;54.284;10.158;2023-02-02T04:22:32;3.90;99.90
5675;DHT22;2860;54.284;10.158;2023-02-02T04:24:57;4.00;99.90
5675;DHT22;2860;54.284;10.158;2023-02-02T04:27:23;4.00;99.90
5675;DHT22;2860;54.284;10.158;2023-02-02T04:29:49;4.00;99.90
5675;DHT22;2860;54.284;10.158;2023-02-02T04:32:15;4.00;99.90
5675;DHT22;2860;54.284;10.158;2023-02-02T04:34:41;4.00;99.90
5675;DHT22;2860;54.284;10.158;2023-02-02T04:37:07;3.90;99.90
5675;DHT22;2860;54.284;10.158;2023-02-02T04:39:32;3.90;99.90
5675;DHT22;2860;54.284;10.158;2023-02-02T04:41:58;3.80;99.90
5675;DHT22;2860;54.284;10.158;2023-02-02T04:44:23;3.70;99.90
5675;DHT22;2860;54.284;10.158;2023-02-02T04:46:49;3.60;99.90
5675;DHT22;2860;54.284;10.158;2023-02-02T04:49:14;3.60;99.90
5675;DHT22;2860;54.284;10.158;2023-02-02T04:51:40;3.60;99.90
5675;DHT22;2860;54.284;10.158;2023-02-02T04:54:06;3.60;99.90
5675;DHT22;2860;54.284;10.158;2023-02-02T04:56:32;3.60;99.90
5675;DHT22;2860;54.284;10.158;2023-02-02T04:58:58;3.60;99.90
5675;DHT22;2860;54.284;10.158;2023-02-02T05:01:24;3.50;99.90
5675;DHT22;2860;54.284;10.158;2023-02-02T05:03:50;3.40;99.90
5675;DHT22;2860;54.284;10.158;2023-02-02T05:06:16;3.40;99.90
5675;DHT22;2860;54.284;10.158;2023-02-02T05:08:43;3.30;99.90
5675;DHT22;2860;54.284;10.158;2023-02-02T05:11:10;3.30;99.90
5675;DHT22;2860;54.284;10.158;2023-02-02T05:13:36;3.20;99.90
5675;DHT22;2860;54.284;10.158;2023-02-02T05:16:02;3.30;99.90
5675;DHT22;2860;54.284;10.158;2023-02-02T05:18:28;3.40;99.90
5675;DHT22;2860;54.284;10.158;2023-02-02T05:20:58;3.40;99.90
5675;DHT22;2860;54.284;10.158;2023-02-02T05:23:24;3.50;99.90
5675;DHT22;2860;54.284;10.158;2023-02-02T05:25:53;3.50;99.90
5675;DHT22;2860;54.284;10.158;2023-02-02T05:28:20;3.50;99.90
5675;DHT22;2860;54.284;10.158;2023-02-02T05:30:45;3.60;99.90
5675;DHT22;2860;54.284;10.158;2023-02-02T05:33:11;3.70;99.90
5675;DHT22;2860;54.284;10.158;2023-02-02T05:35:37;3.70;99.90
5675;DHT22;2860;54.284;10.158;2023-02-02T05:38:03;3.70;99.90
5675;DHT22;2860;54.284;10.158;2023-02-02T05:40:28;3.70;99.90
5675;DHT22;2860;54.284;10.158;2023-02-02T05:42:54;3.80;99.90
5675;DHT22;2860;54.284;10.158;2023-02-02T05:45:19;3.80;99.90
5675;DHT22;2860;54.284;10.158;2023-02-02T05:47:45;3.80;99.90
5675;DHT22;2860;54.284;10.158;2023-02-02T05:50:10;3.90;99.90
5675;DHT22;2860;54.284;10.158;2023-02-02T05:52:36;3.90;99.90
5675;DHT22;2860;54.284;10.158;2023-02-02T05:55:03;4.00;99.90
5675;DHT22;2860;54.284;10.158;2023-02-02T05:57:29;4.00;99.90
5675;DHT22;2860;54.284;10.158;2023-02-02T05:59:54;4.00;99.90
5675;DHT22;2860;54.284;10.158;2023-02-02T06:02:20;4.00;99.90
5675;DHT22;2860;54.284;10.158;2023-02-02T06:04:45;4.00;99.90
5675;DHT22;2860;54.284;10.158;2023-02-02T06:07:11;4.00;99.90
5675;DHT22;2860;54.284;10.158;2023-02-02T06:09:37;4.00;99.90
5675;DHT22;2860;54.284;10.158;2023-02-02T06:12:04;4.00;99.90
5675;DHT22;2860;54.284;10.158;2023-02-02T06:14:29;4.00;99.90
5675;DHT22;2860;54.284;10.158;2023-02-02T06:16:55;3.90;99.90
5675;DHT22;2860;54.284;10.158;2023-02-02T06:19:20;3.90;99.90
5675;DHT22;2860;54.284;10.158;2023-02-02T06:21:46;3.90;99.90
5675;DHT22;2860;54.284;10.158;2023-02-02T06:24:11;4.00;99.90
5675;DHT22;2860;54.284;10.158;2023-02-02T06:26:37;4.00;99.90
5675;DHT22;2860;54.284;10.158;2023-02-02T06:29:03;4.00;99.90
5675;DHT22;2860;54.284;10.158;2023-02-02T06:31:28;4.00;99.90
5675;DHT22;2860;54.284;10.158;2023-02-02T06:33:56;4.00;99.90
5675;DHT22;2860;54.284;10.158;2023-02-02T06:36:22;4.00;99.90
5675;DHT22;2860;54.284;10.158;2023-02-02T06:38:49;3.90;99.90
5675;DHT22;2860;54.284;10.158;2023-02-02T06:41:15;3.90;99.90
5675;DHT22;2860;54.284;10.158;2023-02-02T06:43:41;3.90;99.90
5675;DHT22;2860;54.284;10.158;2023-02-02T06:46:06;3.80;99.90
5675;DHT22;2860;54.284;10.158;2023-02-02T06:48:32;3.80;99.90
5675;DHT22;2860;54.284;10.158;2023-02-02T06:50:58;3.70;99.90
5675;DHT22;2860;54.284;10.158;2023-02-02T06:53:24;3.70;99.90
5675;DHT22;2860;54.284;10.158;2023-02-02T06:55:59;3.70;99.90
5675;DHT22;2860;54.284;10.158;2023-02-02T06:58:26;3.60;99.90
5675;DHT22;2860;54.284;10.158;2023-02-02T07:00:52;3.70;99.90
5675;DHT22;2860;54.284;10.158;2023-02-02T07:03:19;3.60;99.90
5675;DHT22;2860;54.284;10.158;2023-02-02T07:05:46;3.60;99.90
5675;DHT22;2860;54.284;10.158;2023-02-02T07:08:12;3.50;99.90
5675;DHT22;2860;54.284;10.158;2023-02-02T07:10:38;3.40;99.90
5675;DHT22;2860;54.284;10.158;2023-02-02T07:13:04;3.40;99.90
5675;DHT22;2860;54.284;10.158;2023-02-02T07:15:34;3.30;99.90
5675;DHT22;2860;54.284;10.158;2023-02-02T07:17:59;3.30;99.90
5675;DHT22;2860;54.284;10.158;2023-02-02T07:20:26;3.20;99.90
5675;DHT22;2860;54.284;10.158;2023-02-02T07:22:51;3.20;99.90
5675;DHT22;2860;54.284;10.158;2023-02-02T07:25:17;3.20;99.90
5675;DHT22;2860;54.284;10.158;2023-02-02T07:27:42;3.30;99.90
5675;DHT22;2860;54.284;10.158;2023-02-02T07:30:09;3.30;99.90
5675;DHT22;2860;54.284;10.158;2023-02-02T07:32:34;3.30;99.90
5675;DHT22;2860;54.284;10.158;2023-02-02T07:35:00;3.30;99.90
5675;DHT22;2860;54.284;10.158;2023-02-02T07:37:25;3.30;99.90
5675;DHT22;2860;54.284;10.158;2023-02-02T07:39:51;3.20;99.90
5675;DHT22;2860;54.284;10.158;2023-02-02T07:42:16;3.20;99.90
5675;DHT22;2860;54.284;10.158;2023-02-02T07:44:42;3.20;99.90
5675;DHT22;2860;54.284;10.158;2023-02-02T07:47:08;3.20;99.90
5675;DHT22;2860;54.284;10.158;2023-02-02T07:49:33;3.20;99.90
5675;DHT22;2860;54.284;10.158;2023-02-02T07:51:59;3.20;99.90
5675;DHT22;2860;54.284;10.158;2023-02-02T07:54:24;3.20;99.90
5675;DHT22;2860;54.284;10.158;2023-02-02T07:56:50;3.20;99.90
5675;DHT22;2860;54.284;10.158;2023-02-02T07:59:15;3.30;99.90
5675;DHT22;2860;54.284;10.158;2023-02-02T08:01:41;3.40;99.90
5675;DHT22;2860;54.284;10.158;2023-02-02T08:04:06;3.50;99.90
5675;DHT22;2860;54.284;10.158;2023-02-02T08:06:34;3.60;99.90
5675;DHT22;2860;54.284;10.158;2023-02-02T08:09:01;3.60;99.90
5675;DHT22;2860;54.284;10.158;2023-02-02T08:11:28;3.60;99.90
5675;DHT22;2860;54.284;10.158;2023-02-02T08:13:58;3.60;99.90
5675;DHT22;2860;54.284;10.158;2023-02-02T08:16:24;3.60;99.90
5675;DHT22;2860;54.284;10.158;2023-02-02T08:18:50;3.70;99.90
5675;DHT22;2860;54.284;10.158;2023-02-02T08:21:16;3.70;99.90
5675;DHT22;2860;54.284;10.158;2023-02-02T08:23:42;3.70;99.90
5675;DHT22;2860;54.284;10.158;2023-02-02T08:28:39;3.80;99.90
5675;DHT22;2860;54.284;10.158;2023-02-02T08:31:20;3.80;99.90
5675;DHT22;2860;54.284;10.158;2023-02-02T08:33:46;3.90;99.90
5675;DHT22;2860;54.284;10.158;2023-02-02T08:36:17;3.80;99.90
5675;DHT22;2860;54.284;10.158;2023-02-02T08:38:43;3.80;99.90
5675;DHT22;2860;54.284;10.158;2023-02-02T08:41:11;3.80;99.90
5675;DHT22;2860;54.284;10.158;2023-02-02T08:43:37;3.90;99.90
5675;DHT22;2860;54.284;10.158;2023-02-02T08:46:03;3.90;99.90
5675;DHT22;2860;54.284;10.158;2023-02-02T08:48:29;3.90;99.90
5675;DHT22;2860;54.284;10.158;2023-02-02T08:50:57;3.90;99.90
5675;DHT22;2860;54.284;10.158;2023-02-02T08:53:22;3.90;99.90
5675;DHT22;2860;54.284;10.158;2023-02-02T08:56:00;3.90;99.90
5675;DHT22;2860;54.284;10.158;2023-02-02T08:58:26;3.90;99.90
5675;DHT22;2860;54.284;10.158;2023-02-02T09:00:52;3.80;99.90
5675;DHT22;2860;54.284;10.158;2023-02-02T09:03:18;3.80;99.90
5675;DHT22;2860;54.284;10.158;2023-02-02T09:05:43;3.80;99.90
5675;DHT22;2860;54.284;10.158;2023-02-02T09:08:09;3.80;99.90
5675;DHT22;2860;54.284;10.158;2023-02-02T09:10:35;3.80;99.90
5675;DHT22;2860;54.284;10.158;2023-02-02T09:13:01;3.90;99.90
5675;DHT22;2860;54.284;10.158;2023-02-02T09:15:26;3.90;99.90
5675;DHT22;2860;54.284;10.158;2023-02-02T09:17:52;3.90;99.90
5675;DHT22;2860;54.284;10.158;2023-02-02T09:20:18;3.90;99.90
5675;DHT22;2860;54.284;10.158;2023-02-02T09:22:43;4.00;99.90
5675;DHT22;2860;54.284;10.158;2023-02-02T09:25:09;4.00;99.90
5675;DHT22;2860;54.284;10.158;2023-02-02T09:27:37;4.00;99.90
5675;DHT22;2860;54.284;10.158;2023-02-02T09:30:06;4.00;99.90
5675;DHT22;2860;54.284;10.158;2023-02-02T09:32:32;4.10;99.90
5675;DHT22;2860;54.284;10.158;2023-02-02T09:34:58;4.10;99.90
5675;DHT22;2860;54.284;10.158;2023-02-02T09:37:25;4.20;99.90
5675;DHT22;2860;54.284;10.158;2023-02-02T09:39:50;4.30;99.90
5675;DHT22;2860;54.284;10.158;2023-02-02T09:42:47;4.40;99.90
5675;DHT22;2860;54.284;10.158;2023-02-02T09:45:29;4.60;99.90
5675;DHT22;2860;54.284;10.158;2023-02-02T09:50:46;4.80;99.90
5675;DHT22;2860;54.284;10.158;2023-02-02T09:53:32;4.90;99.90
5675;DHT22;2860;54.284;10.158;2023-02-02T09:56:05;5.10;99.90
5675;DHT22;2860;54.284;10.158;2023-02-02T09:58:55;5.10;99.90
5675;DHT22;2860;54.284;10.158;2023-02-02T10:01:32;5.10;99.90
5675;DHT22;2860;54.284;10.158;2023-02-02T10:04:22;5.20;99.90
5675;DHT22;2860;54.284;10.158;2023-02-02T10:06:52;5.20;99.90
5675;DHT22;2860;54.284;10.158;2023-02-02T10:09:22;5.20;99.90
5675;DHT22;2860;54.284;10.158;2023-02-02T10:14:55;5.20;99.90
5675;DHT22;2860;54.284;10.158;2023-02-02T10:17:50;5.20;99.90
5675;DHT22;2860;54.284;10.158;2023-02-02T10:22:58;5.20;99.90
5675;DHT22;2860;54.284;10.158;2023-02-02T10:25:28;5.20;99.90
5675;DHT22;2860;54.284;10.158;2023-02-02T10:28:07;5.30;99.90
5675;DHT22;2860;54.284;10.158;2023-02-02T10:30:49;5.30;99.90
5675;DHT22;2860;54.284;10.158;2023-02-02T10:33:36;5.30;99.90
5675;DHT22;2860;54.284;10.158;2023-02-02T10:36:09;5.30;99.90
5675;DHT22;2860;54.284;10.158;2023-02-02T10:38:42;5.30;99.90
5675;DHT22;2860;54.284;10.158;2023-02-02T10:43:55;5.30;99.90
5675;DHT22;2860;54.284;10.158;2023-02-02T10:46:29;5.30;99.90
5675;DHT22;2860;54.284;10.158;2023-02-02T10:52:21;5.30;99.90
5675;DHT22;2860;54.284;10.158;2023-02-02T10:57:57;5.30;99.90
5675;DHT22;2860;54.284;10.158;2023-02-02T11:00:37;5.30;99.90
5675;DHT22;2860;54.284;10.158;2023-02-02T11:03:04;5.30;99.90
5675;DHT22;2860;54.284;10.158;2023-02-02T11:05:32;5.30;99.90
5675;DHT22;2860;54.284;10.158;2023-02-02T11:08:24;5.20;99.90
5675;DHT22;2860;54.284;10.158;2023-02-02T11:10:54;5.20;99.90
5675;DHT22;2860;54.284;10.158;2023-02-02T11:13:30;5.30;99.90
5675;DHT22;2860;54.284;10.158;2023-02-02T11:18:44;5.40;99.90
5675;DHT22;2860;54.284;10.158;2023-02-02T11:21:30;5.40;99.90
5675;DHT22;2860;54.284;10.158;2023-02-02T11:24:01;5.40;99.90
5675;DHT22;2860;54.284;10.158;2023-02-02T11:26:47;5.40;99.90
5675;DHT22;2860;54.284;10.158;2023-02-02T11:29:17;5.60;99.90
5675;DHT22;2860;54.284;10.158;2023-02-02T11:31:44;5.60;99.90
5675;DHT22;2860;54.284;10.158;2023-02-02T11:34:22;5.70;99.90
5675;DHT22;2860;54.284;10.158;2023-02-02T11:39:25;5.80;99.90
5675;DHT22;2860;54.284;10.158;2023-02-02T11:41:59;5.80;99.90
5675;DHT22;2860;54.284;10.158;2023-02-02T11:44:26;5.80;99.90
5675;DHT22;2860;54.284;10.158;2023-02-02T11:46:53;5.70;99.90
5675;DHT22;2860;54.284;10.158;2023-02-02T11:49:21;5.60;99.90
5675;DHT22;2860;54.284;10.158;2023-02-02T11:51:58;5.60;99.90
5675;DHT22;2860;54.284;10.158;2023-02-02T11:54:30;5.50;99.90
5675;DHT22;2860;54.284;10.158;2023-02-02T11:57:00;5.50;99.90
5675;DHT22;2860;54.284;10.158;2023-02-02T11:59:43;5.40;99.90
5675;DHT22;2860;54.284;10.158;2023-02-02T12:04:45;5.40;99.90
5675;DHT22;2860;54.284;10.158;2023-02-02T12:09:44;5.30;99.90
5675;DHT22;2860;54.284;10.158;2023-02-02T12:15:21;5.30;99.90
5675;DHT22;2860;54.284;10.158;2023-02-02T12:17:54;5.40;99.90
5675;DHT22;2860;54.284;10.158;2023-02-02T12:20:57;5.40;99.90
5675;DHT22;2860;54.284;10.158;2023-02-02T12:28:54;5.50;99.90
5675;DHT22;2860;54.284;10.158;2023-02-02T12:34:53;5.70;99.90
5675;DHT22;2860;54.284;10.158;2023-02-02T12:37:31;5.80;99.90
5675;DHT22;2860;54.284;10.158;2023-02-02T12:42:51;5.90;99.90
5675;DHT22;2860;54.284;10.158;2023-02-02T12:45:34;6.00;99.90
5675;DHT22;2860;54.284;10.158;2023-02-02T12:56:53;6.20;99.90
5675;DHT22;2860;54.284;10.158;2023-02-02T12:59:52;6.30;99.90
5675;DHT22;2860;54.284;10.158;2023-02-02T13:08:20;6.40;99.90
5675;DHT22;2860;54.284;10.158;2023-02-02T13:11:02;6.50;99.90
5675;DHT22;2860;54.284;10.158;2023-02-02T13:13:36;6.60;99.90
5675;DHT22;2860;54.284;10.158;2023-02-02T13:16:06;6.70;99.90
5675;DHT22;2860;54.284;10.158;2023-02-02T13:18:47;6.80;99.90
5675;DHT22;2860;54.284;10.158;2023-02-02T13:21:18;6.70;99.90
5675;DHT22;2860;54.284;10.158;2023-02-02T13:23:49;6.50;99.90
5675;DHT22;2860;54.284;10.158;2023-02-02T13:26:18;6.40;99.90
5675;DHT22;2860;54.284;10.158;2023-02-02T13:31:39;6.10;99.90
5675;DHT22;2860;54.284;10.158;2023-02-02T13:36:43;6.10;99.90
5675;DHT22;2860;54.284;10.158;2023-02-02T13:39:35;6.10;99.90
5675;DHT22;2860;54.284;10.158;2023-02-02T13:42:02;6.10;99.90
5675;DHT22;2860;54.284;10.158;2023-02-02T13:44:37;6.00;99.90
5675;DHT22;2860;54.284;10.158;2023-02-02T13:47:08;6.00;99.90
5675;DHT22;2860;54.284;10.158;2023-02-02T13:49:40;6.10;99.90
5675;DHT22;2860;54.284;10.158;2023-02-02T13:58:10;6.10;99.90
5675;DHT22;2860;54.284;10.158;2023-02-02T14:00:50;6.10;99.90
5675;DHT22;2860;54.284;10.158;2023-02-02T14:03:39;6.10;99.90
5675;DHT22;2860;54.284;10.158;2023-02-02T14:06:15;6.00;99.90
5675;DHT22;2860;54.284;10.158;2023-02-02T14:08:54;6.00;99.90
5675;DHT22;2860;54.284;10.158;2023-02-02T14:11:32;6.00;99.90
5675;DHT22;2860;54.284;10.158;2023-02-02T14:14:19;6.00;99.90
5675;DHT22;2860;54.284;10.158;2023-02-02T14:17:01;6.00;99.90
5675;DHT22;2860;54.284;10.158;2023-02-02T14:29:35;5.80;99.90
5675;DHT22;2860;54.284;10.158;2023-02-02T14:34:47;5.80;99.90
5675;DHT22;2860;54.284;10.158;2023-02-02T14:48:47;5.50;99.90
5675;DHT22;2860;54.284;10.158;2023-02-02T14:51:17;5.50;99.90
5675;DHT22;2860;54.284;10.158;2023-02-02T14:53:50;5.50;99.90
5675;DHT22;2860;54.284;10.158;2023-02-02T14:56:17;5.50;99.90
5675;DHT22;2860;54.284;10.158;2023-02-02T14:58:57;5.50;99.90
5675;DHT22;2860;54.284;10.158;2023-02-02T15:01:28;5.40;99.90
5675;DHT22;2860;54.284;10.158;2023-02-02T15:14:24;5.00;99.90
5675;DHT22;2860;54.284;10.158;2023-02-02T15:16:51;4.90;99.90
5675;DHT22;2860;54.284;10.158;2023-02-02T15:19:26;4.80;99.90
5675;DHT22;2860;54.284;10.158;2023-02-02T15:22:11;4.80;99.90
5675;DHT22;2860;54.284;10.158;2023-02-02T15:24:44;4.70;99.90
5675;DHT22;2860;54.284;10.158;2023-02-02T15:27:16;4.70;99.90
5675;DHT22;2860;54.284;10.158;2023-02-02T15:29:44;4.60;99.90
5675;DHT22;2860;54.284;10.158;2023-02-02T15:32:16;4.60;99.90
5675;DHT22;2860;54.284;10.158;2023-02-02T15:34:50;4.50;99.90
5675;DHT22;2860;54.284;10.158;2023-02-02T15:37:25;4.40;99.90
5675;DHT22;2860;54.284;10.158;2023-02-02T15:39:53;4.40;99.90
5675;DHT22;2860;54.284;10.158;2023-02-02T15:42:43;4.30;99.90
5675;DHT22;2860;54.284;10.158;2023-02-02T15:48:28;4.30;99.90
5675;DHT22;2860;54.284;10.158;2023-02-02T15:50:59;4.20;99.90
5675;DHT22;2860;54.284;10.158;2023-02-02T15:58:50;3.90;99.90
5675;DHT22;2860;54.284;10.158;2023-02-02T16:01:18;3.80;99.90
5675;DHT22;2860;54.284;10.158;2023-02-02T16:03:54;3.70;99.90
5675;DHT22;2860;54.284;10.158;2023-02-02T16:06:21;3.60;99.90
5675;DHT22;2860;54.284;10.158;2023-02-02T16:08:46;3.50;99.90
5675;DHT22;2860;54.284;10.158;2023-02-02T16:11:21;3.40;99.90
5675;DHT22;2860;54.284;10.158;2023-02-02T16:13:59;3.40;99.90
5675;DHT22;2860;54.284;10.158;2023-02-02T16:16:28;3.30;99.90
5675;DHT22;2860;54.284;10.158;2023-02-02T16:21:37;3.30;99.90
5675;DHT22;2860;54.284;10.158;2023-02-02T16:24:09;3.20;99.90
5675;DHT22;2860;54.284;10.158;2023-02-02T16:26:36;3.20;99.90
5675;DHT22;2860;54.284;10.158;2023-02-02T16:29:01;3.10;99.90
5675;DHT22;2860;54.284;10.158;2023-02-02T16:31:27;3.00;99.90
5675;DHT22;2860;54.284;10.158;2023-02-02T16:33:55;2.90;99.90
5675;DHT22;2860;54.284;10.158;2023-02-02T16:36:26;2.90;99.90
5675;DHT22;2860;54.284;10.158;2023-02-02T16:38:56;2.80;99.90
5675;DHT22;2860;54.284;10.158;2023-02-02T16:41:33;2.80;99.90
5675;DHT22;2860;54.284;10.158;2023-02-02T16:44:28;2.70;99.90
5675;DHT22;2860;54.284;10.158;2023-02-02T16:46:54;2.60;99.90
5675;DHT22;2860;54.284;10.158;2023-02-02T16:49:24;2.50;99.90
5675;DHT22;2860;54.284;10.158;2023-02-02T16:52:17;2.40;99.90
5675;DHT22;2860;54.284;10.158;2023-02-02T16:54:52;2.40;99.90
5675;DHT22;2860;54.284;10.158;2023-02-02T16:57:22;2.30;99.90
5675;DHT22;2860;54.284;10.158;2023-02-02T16:59:51;2.20;99.90
5675;DHT22;2860;54.284;10.158;2023-02-02T17:02:30;2.20;99.90
5675;DHT22;2860;54.284;10.158;2023-02-02T17:05:26;2.10;99.90
5675;DHT22;2860;54.284;10.158;2023-02-02T17:07:56;2.10;99.90
5675;DHT22;2860;54.284;10.158;2023-02-02T17:10:27;2.10;99.90
5675;DHT22;2860;54.284;10.158;2023-02-02T17:12:56;2.00;99.90
5675;DHT22;2860;54.284;10.158;2023-02-02T17:15:31;2.00;99.90
5675;DHT22;2860;54.284;10.158;2023-02-02T17:17:56;2.00;99.90
5675;DHT22;2860;54.284;10.158;2023-02-02T17:20:23;1.90;99.90
5675;DHT22;2860;54.284;10.158;2023-02-02T17:22:52;1.90;99.90
5675;DHT22;2860;54.284;10.158;2023-02-02T17:25:30;1.90;99.90
5675;DHT22;2860;54.284;10.158;2023-02-02T17:27:58;1.80;99.90
5675;DHT22;2860;54.284;10.158;2023-02-02T17:30:24;1.80;99.90
5675;DHT22;2860;54.284;10.158;2023-02-02T17:32:50;1.80;99.90
5675;DHT22;2860;54.284;10.158;2023-02-02T17:35:21;1.80;99.90
5675;DHT22;2860;54.284;10.158;2023-02-02T17:37:48;1.70;99.90
5675;DHT22;2860;54.284;10.158;2023-02-02T17:40:15;1.70;99.90
5675;DHT22;2860;54.284;10.158;2023-02-02T17:42:42;1.70;99.90
5675;DHT22;2860;54.284;10.158;2023-02-02T17:45:20;1.70;99.90
5675;DHT22;2860;54.284;10.158;2023-02-02T17:47:47;1.70;99.90
5675;DHT22;2860;54.284;10.158;2023-02-02T17:50:13;1.70;99.90
5675;DHT22;2860;54.284;10.158;2023-02-02T17:52:39;1.70;99.90
5675;DHT22;2860;54.284;10.158;2023-02-02T17:55:11;1.70;99.90
5675;DHT22;2860;54.284;10.158;2023-02-02T17:57:37;1.70;99.90
5675;DHT22;2860;54.284;10.158;2023-02-02T18:00:04;1.70;99.90
5675;DHT22;2860;54.284;10.158;2023-02-02T18:02:29;1.70;99.90
5675;DHT22;2860;54.284;10.158;2023-02-02T18:04:55;1.70;99.90
5675;DHT22;2860;54.284;10.158;2023-02-02T18:07:21;1.70;99.90
5675;DHT22;2860;54.284;10.158;2023-02-02T18:09:46;1.70;99.90
5675;DHT22;2860;54.284;10.158;2023-02-02T18:12:12;1.70;99.90
5675;DHT22;2860;54.284;10.158;2023-02-02T18:14:37;1.70;99.90
5675;DHT22;2860;54.284;10.158;2023-02-02T18:17:03;1.70;99.90
5675;DHT22;2860;54.284;10.158;2023-02-02T18:19:30;1.80;99.90
5675;DHT22;2860;54.284;10.158;2023-02-02T18:21:55;1.80;99.90
5675;DHT22;2860;54.284;10.158;2023-02-02T18:24:20;1.80;99.90
5675;DHT22;2860;54.284;10.158;2023-02-02T18:26:46;1.80;99.90
5675;DHT22;2860;54.284;10.158;2023-02-02T18:29:11;1.80;99.90